Time;durP1;ratioP1;P1;durP2;ratioP2;P2;SDS_P1;SDS_P2;PMS_P1;PMS_P2;Temp;Humidity;BMP_temperature;BMP_pressure;BME280_temperature;BME280_humidity;BME280_pressure;Samples;Min_cycle;Max_cycle;Signal;HPM_P1;HPM_P2
2021/09/30 00:02:16;;;;;;;1.40;0.40;;;;;;;9.04;85.03;99833.31;5032156;28;20021;-72
2021/09/30 00:04:41;;;;;;;5.10;0.43;;;;;;;8.84;85.10;99819.31;5031472;28;20028;-73
2021/09/30 00:07:07;;;;;;;7.35;0.50;;;;;;;8.84;85.57;99814.75;5033537;28;20029;-73
2021/09/30 00:09:35;;;;;;;2.15;0.63;;;;;;;8.70;85.42;99801.94;5031859;28;20032;-72
2021/09/30 00:12:09;;;;;;;2.97;0.63;;;;;;;8.69;85.89;99816.44;5033081;28;20116;-72
2021/09/30 00:15:25;;;;;;;5.90;0.50;;;;;;;8.71;86.56;99836.00;5032382;28;20025;-72
2021/09/30 00:17:46;;;;;;;3.33;0.53;;;;;;;8.55;86.80;99831.41;5020757;28;20040;-72
2021/09/30 00:39:36;;;;;;;3.30;0.60;;;;;;;8.20;89.84;99864.78;5032845;28;20087;-72
2021/09/30 01:32:46;;;;;;;0.98;0.57;;;;;;;7.40;95.33;99873.06;5036232;28;20171;-71
2021/09/30 02:21:11;;;;;;;5.90;1.02;;;;;;;6.39;99.37;99899.31;5034688;28;20094;-70
2021/09/30 02:29:21;;;;;;;3.22;1.00;;;;;;;6.14;100.00;99896.31;5034213;28;20502;-73
2021/09/30 02:59:05;;;;;;;6.63;0.70;;;;;;;6.22;100.00;99888.38;5033135;28;20040;-71
2021/09/30 03:01:33;;;;;;;2.55;1.02;;;;;;;6.29;100.00;99918.19;5033137;28;20836;-71
2021/09/30 03:03:59;;;;;;;8.10;1.00;;;;;;;5.93;100.00;99918.88;5032968;28;20021;-70
2021/09/30 03:06:26;;;;;;;5.32;0.85;;;;;;;5.95;100.00;99924.13;5023609;28;20048;-70
2021/09/30 03:08:54;;;;;;;5.82;0.93;;;;;;;5.82;100.00;99916.34;5030836;28;20025;-71
2021/09/30 03:11:21;;;;;;;2.00;0.70;;;;;;;5.74;100.00;99932.34;5032467;28;20033;-70
2021/09/30 03:13:48;;;;;;;2.70;0.82;;;;;;;5.76;100.00;99908.84;5033860;28;20268;-70
2021/09/30 03:16:30;;;;;;;4.75;1.02;;;;;;;5.70;100.00;99931.75;5022502;28;20040;-71
2021/09/30 03:24:10;;;;;;;4.60;0.75;;;;;;;5.55;100.00;99900.13;5034091;28;20087;-73
2021/09/30 03:26:35;;;;;;;3.70;0.95;;;;;;;5.76;100.00;99930.31;5033014;28;20029;-73
2021/09/30 03:29:02;;;;;;;1.60;0.85;;;;;;;5.75;100.00;99936.69;5030972;28;20068;-73
2021/09/30 03:31:28;;;;;;;3.47;1.20;;;;;;;5.60;100.00;99936.28;5033739;28;20036;-70
2021/09/30 03:33:54;;;;;;;4.05;1.20;;;;;;;5.53;100.00;99923.59;5033790;28;20029;-74
2021/09/30 03:36:19;;;;;;;3.72;1.13;;;;;;;5.62;100.00;99934.31;5025094;28;20373;-73
2021/09/30 03:38:45;;;;;;;4.30;0.90;;;;;;;5.32;100.00;99889.75;5028923;28;20493;-74
2021/09/30 03:41:10;;;;;;;5.75;1.13;;;;;;;5.55;100.00;99941.25;5031941;28;20021;-74
2021/09/30 03:43:35;;;;;;;3.05;1.27;;;;;;;5.55;100.00;99921.59;5033523;28;20038;-74
2021/09/30 03:46:01;;;;;;;6.18;1.38;;;;;;;5.68;100.00;99927.53;5033387;28;20021;-74
2021/09/30 03:48:26;;;;;;;3.92;1.20;;;;;;;5.49;100.00;99902.41;5031004;28;20041;-72
2021/09/30 04:00:55;;;;;;;7.60;1.13;;;;;;;5.14;100.00;99912.91;5037873;28;20075;-72
2021/09/30 04:03:20;;;;;;;7.63;1.17;;;;;;;5.05;100.00;99928.81;5034416;28;20030;-78
2021/09/30 04:05:46;;;;;;;1.80;1.08;;;;;;;5.18;100.00;99941.97;5035447;28;20053;-78
2021/09/30 04:08:11;;;;;;;6.80;1.10;;;;;;;5.03;100.00;99928.16;5031985;28;20028;-76
2021/09/30 04:10:37;;;;;;;3.03;0.88;;;;;;;5.11;100.00;99956.06;5033267;28;20030;-77
2021/09/30 04:13:02;;;;;;;5.07;1.17;;;;;;;5.04;100.00;99915.56;5032079;28;20029;-77
2021/09/30 04:15:28;;;;;;;1.30;0.80;;;;;;;5.24;100.00;99967.41;5033855;28;20112;-76
2021/09/30 04:17:53;;;;;;;2.65;1.17;;;;;;;4.95;100.00;99941.41;5031809;28;20483;-77
2021/09/30 04:20:18;;;;;;;1.92;0.95;;;;;;;5.05;100.00;99963.69;5033020;28;20647;-73
2021/09/30 04:22:44;;;;;;;4.80;1.00;;;;;;;4.83;100.00;99931.78;5024771;28;20069;-75
2021/09/30 04:25:11;;;;;;;3.13;0.70;;;;;;;4.71;100.00;99927.53;5033456;28;20154;-72
2021/09/30 04:27:36;;;;;;;3.10;1.27;;;;;;;4.81;100.00;99955.19;5033445;28;20398;-74
2021/09/30 04:30:03;;;;;;;7.43;1.48;;;;;;;4.45;100.00;99908.41;5031194;28;20036;-74
2021/09/30 04:32:28;;;;;;;6.60;1.40;;;;;;;4.74;100.00;99957.59;5033033;28;20029;-74
2021/09/30 04:34:54;;;;;;;3.95;2.10;;;;;;;4.76;100.00;99960.13;5033352;28;20376;-71
2021/09/30 04:37:19;;;;;;;3.72;1.40;;;;;;;4.82;100.00;99951.53;5033392;28;20523;-77
2021/09/30 04:39:44;;;;;;;4.57;1.98;;;;;;;5.02;100.00;99966.66;5034338;28;20467;-73
2021/09/30 04:42:10;;;;;;;4.82;2.47;;;;;;;4.73;100.00;99939.81;5031940;28;20060;-74
2021/09/30 04:44:35;;;;;;;5.10;2.13;;;;;;;4.78;100.00;99960.84;5035933;28;20398;-74
2021/09/30 04:47:00;;;;;;;5.80;3.22;;;;;;;4.81;100.00;99965.91;5036725;28;20036;-76
2021/09/30 04:49:26;;;;;;;6.65;2.50;;;;;;;4.76;100.00;99963.66;5037649;28;20028;-74
2021/09/30 04:51:51;;;;;;;13.07;2.30;;;;;;;4.52;100.00;99952.44;5037097;28;20036;-76
2021/09/30 04:54:16;;;;;;;2.85;1.85;;;;;;;4.49;100.00;99924.09;5035537;28;20025;-73
2021/09/30 04:56:43;;;;;;;4.75;1.48;;;;;;;4.62;100.00;99961.38;5035541;28;20029;-73
2021/09/30 04:59:08;;;;;;;3.28;1.60;;;;;;;4.56;100.00;99957.41;5033108;28;20022;-73
2021/09/30 05:01:34;;;;;;;2.65;1.58;;;;;;;4.53;100.00;99968.41;5034907;28;20028;-71
2021/09/30 05:03:59;;;;;;;3.35;1.10;;;;;;;4.54;100.00;99982.66;5026271;28;20114;-69
2021/09/30 05:06:25;;;;;;;4.47;1.08;;;;;;;4.49;100.00;99956.25;5025674;28;20026;-71
2021/09/30 05:08:56;;;;;;;3.05;1.40;;;;;;;4.63;100.00;99972.94;5028519;28;20030;-73
2021/09/30 05:11:22;;;;;;;5.75;1.13;;;;;;;4.23;100.00;99929.06;5027157;28;20025;-75
2021/09/30 05:13:52;;;;;;;1.48;1.00;;;;;;;4.44;100.00;99984.44;5034768;28;20018;-79
2021/09/30 05:16:17;;;;;;;1.90;1.50;;;;;;;4.44;100.00;99969.19;5032501;28;20029;-73
2021/09/30 05:18:50;;;;;;;2.22;1.10;;;;;;;4.42;100.00;99973.84;5030388;28;20040;-73
2021/09/30 05:21:16;;;;;;;3.63;1.60;;;;;;;4.52;100.00;99992.66;5032064;28;20053;-70
2021/09/30 05:23:41;;;;;;;11.48;2.05;;;;;;;4.45;100.00;99989.63;5031847;28;20025;-73
2021/09/30 05:26:07;;;;;;;8.18;1.77;;;;;;;4.43;100.00;99985.41;5032033;28;20029;-72
2021/09/30 05:28:32;;;;;;;7.22;1.88;;;;;;;4.44;100.00;99998.69;5032569;28;20029;-73
2021/09/30 05:30:58;;;;;;;6.30;2.10;;;;;;;4.32;100.00;99983.66;5033736;28;20052;-71
2021/09/30 05:33:24;;;;;;;4.32;1.13;;;;;;;4.37;100.00;100009.06;5033661;28;20076;-68
2021/09/30 05:35:50;;;;;;;5.90;1.42;;;;;;;4.42;100.00;100005.16;5032591;28;20079;-74
2021/09/30 05:38:15;;;;;;;2.28;1.33;;;;;;;4.36;100.00;99982.44;5032307;28;20029;-71
2021/09/30 05:40:41;;;;;;;7.63;1.50;;;;;;;4.57;100.00;100004.66;5033648;28;20109;-68
2021/09/30 05:43:11;;;;;;;3.65;1.70;;;;;;;4.53;100.00;99991.66;5033528;28;20033;-75
2021/09/30 05:45:42;;;;;;;3.30;1.30;;;;;;;4.64;100.00;99993.38;5032622;28;20021;-70
2021/09/30 05:48:08;;;;;;;5.03;1.40;;;;;;;4.74;100.00;100000.50;5031805;28;20029;-72
2021/09/30 05:50:33;;;;;;;3.70;1.48;;;;;;;5.03;100.00;100013.97;5028965;28;20025;-72
2021/09/30 05:52:59;;;;;;;5.07;1.38;;;;;;;6.00;100.00;100012.28;5028733;28;20021;-73
2021/09/30 05:55:24;;;;;;;3.58;1.40;;;;;;;7.85;88.81;100006.75;5033446;28;20395;-72
2021/09/30 05:57:50;;;;;;;2.80;1.13;;;;;;;9.80;78.43;100011.28;5033286;28;20044;-69
2021/09/30 06:00:43;;;;;;;2.95;0.98;;;;;;;11.15;73.14;100000.66;5031914;28;20025;-67
2021/09/30 06:14:08;;;;;;;1.45;0.90;;;;;;;14.73;54.50;99967.44;5040354;28;20075;-71
2021/09/30 06:16:35;;;;;;;3.22;1.17;;;;;;;15.56;52.34;99971.69;5034973;28;20076;-74
2021/09/30 06:19:02;;;;;;;5.65;0.90;;;;;;;16.24;51.29;99995.25;5030452;28;20574;-70
2021/09/30 06:21:27;;;;;;;4.72;0.90;;;;;;;16.90;49.70;100004.41;5032061;28;20537;-67
2021/09/30 06:23:53;;;;;;;7.28;1.10;;;;;;;17.21;48.18;99990.84;5032374;28;20033;-75
2021/09/30 06:26:18;;;;;;;1.63;0.70;;;;;;;18.22;47.26;100002.00;5033746;28;20045;-75
2021/09/30 06:28:43;;;;;;;1.60;0.77;;;;;;;18.21;45.60;99990.22;5032719;28;20543;-75
2021/09/30 06:31:09;;;;;;;3.20;0.95;;;;;;;18.93;43.48;100003.41;5027805;28;20026;-74
2021/09/30 06:33:34;;;;;;;3.20;0.85;;;;;;;19.27;42.94;99988.22;5033984;28;20031;-75
2021/09/30 06:36:00;;;;;;;10.07;1.10;;;;;;;19.55;42.58;100000.53;5035467;28;20029;-76
2021/09/30 06:38:25;;;;;;;3.83;1.00;;;;;;;19.11;42.46;99981.47;5030469;28;20541;-75
2021/09/30 06:40:50;;;;;;;5.68;0.80;;;;;;;18.81;43.18;99987.72;5032000;28;20028;-74
2021/09/30 06:43:16;;;;;;;4.68;1.10;;;;;;;20.23;41.68;99986.38;5032717;28;20395;-76
2021/09/30 06:45:41;;;;;;;3.50;1.02;;;;;;;19.85;41.51;100008.75;5034169;28;20526;-70
2021/09/30 06:48:07;;;;;;;3.75;1.35;;;;;;;20.25;39.87;99972.38;5032199;28;20044;-77
2021/09/30 06:50:32;;;;;;;5.47;0.95;;;;;;;20.85;38.93;100005.13;5035376;28;20076;-77
2021/09/30 06:53:01;;;;;;;3.72;1.00;;;;;;;21.08;38.58;99993.25;5035831;28;20035;-76
2021/09/30 06:55:26;;;;;;;2.28;0.90;;;;;;;20.30;40.68;100002.75;5034260;28;20557;-71
2021/09/30 06:57:52;;;;;;;3.50;1.00;;;;;;;21.01;39.98;100009.06;5032509;28;20061;-71
2021/09/30 07:00:17;;;;;;;2.50;0.90;;;;;;;21.93;38.29;99997.13;5032455;28;20044;-71
2021/09/30 07:02:43;;;;;;;3.75;1.10;;;;;;;21.43;38.55;100000.59;5032561;28;20418;-71
2021/09/30 07:05:14;;;;;;;3.58;1.20;;;;;;;22.03;36.53;100004.72;5032223;28;20037;-71
2021/09/30 07:07:39;;;;;;;4.30;1.00;;;;;;;22.67;36.11;100005.22;5034046;28;20021;-71
2021/09/30 07:10:09;;;;;;;3.05;0.95;;;;;;;23.60;34.32;100007.25;5029119;28;20494;-71
2021/09/30 07:12:34;;;;;;;1.60;0.90;;;;;;;23.76;34.29;99992.56;5026071;28;20108;-72
2021/09/30 07:15:00;;;;;;;2.65;1.10;;;;;;;23.69;34.22;100014.00;5028924;28;20108;-76
2021/09/30 07:17:26;;;;;;;3.47;1.10;;;;;;;24.41;33.46;100006.34;5033778;28;20163;-76
2021/09/30 07:19:51;;;;;;;6.47;1.38;;;;;;;23.67;34.02;100001.53;5030962;28;20052;-77
2021/09/30 07:22:16;;;;;;;3.42;1.55;;;;;;;23.77;34.25;100005.25;5031817;28;20030;-73
2021/09/30 07:24:42;;;;;;;2.17;1.05;;;;;;;23.94;34.21;100007.06;5027137;28;20029;-75
2021/09/30 07:27:09;;;;;;;2.25;1.02;;;;;;;24.36;33.50;100004.38;5035380;28;20025;-77
2021/09/30 07:29:34;;;;;;;5.65;1.40;;;;;;;24.43;32.85;100018.00;5028407;28;20079;-76
2021/09/30 07:32:01;;;;;;;3.38;1.02;;;;;;;23.69;35.00;100015.94;5032477;28;20465;-75
2021/09/30 07:34:26;;;;;;;4.00;1.38;;;;;;;24.01;33.71;100002.16;5033528;28;20368;-77
2021/09/30 07:36:52;;;;;;;2.53;1.05;;;;;;;23.59;34.35;100016.63;5031751;28;20025;-77
2021/09/30 07:39:18;;;;;;;1.73;0.90;;;;;;;25.09;32.46;100012.06;5031079;28;20056;-77
2021/09/30 07:41:45;;;;;;;1.10;0.60;;;;;;;24.37;33.34;100021.84;5031944;28;20512;-77
2021/09/30 07:44:11;;;;;;;4.03;0.95;;;;;;;24.04;33.58;100024.56;5031924;28;20479;-76
2021/09/30 07:46:38;;;;;;;3.20;0.98;;;;;;;23.25;34.57;100016.78;5033104;28;20032;-77
2021/09/30 07:49:05;;;;;;;3.22;1.05;;;;;;;23.63;33.76;100002.06;5032055;28;20033;-78
2021/09/30 07:51:32;;;;;;;3.35;0.68;;;;;;;24.16;33.19;100018.06;5036334;28;20029;-78
2021/09/30 07:53:58;;;;;;;4.35;0.80;;;;;;;23.89;34.25;100027.19;5032711;28;20029;-75
2021/09/30 07:56:24;;;;;;;5.32;0.93;;;;;;;23.82;34.01;99976.84;5032157;28;20029;-75
2021/09/30 07:58:49;;;;;;;5.68;0.95;;;;;;;24.38;32.89;99987.53;5032823;28;20036;-75
2021/09/30 08:01:15;;;;;;;3.28;1.08;;;;;;;24.46;33.23;100014.72;5033472;28;20021;-75
2021/09/30 08:03:41;;;;;;;5.75;1.23;;;;;;;24.16;33.38;100012.53;5033451;28;20026;-81
2021/09/30 08:06:06;;;;;;;4.05;1.13;;;;;;;24.96;33.04;100007.84;5034815;28;20017;-73
2021/09/30 08:08:32;;;;;;;1.63;0.82;;;;;;;23.99;34.53;100016.25;5043616;28;20026;-77
2021/09/30 08:10:59;;;;;;;4.97;0.80;;;;;;;23.51;34.52;99987.53;5034081;28;20033;-80
2021/09/30 08:13:25;;;;;;;2.65;0.95;;;;;;;23.87;35.32;100018.34;5036021;28;20064;-79
2021/09/30 08:15:51;;;;;;;5.07;1.00;;;;;;;21.57;38.04;100001.97;5031611;28;20433;-76
2021/09/30 08:18:16;;;;;;;2.22;0.90;;;;;;;21.66;37.94;100010.66;5026014;28;20112;-71
2021/09/30 08:20:42;;;;;;;2.95;0.82;;;;;;;22.71;36.05;100011.88;5032020;28;20061;-71
2021/09/30 08:23:13;;;;;;;2.67;1.02;;;;;;;23.75;34.89;100021.25;5032749;28;20021;-78
2021/09/30 08:25:39;;;;;;;4.13;0.77;;;;;;;22.79;36.09;100012.56;5029319;28;20097;-77
2021/09/30 08:28:05;;;;;;;4.38;1.27;;;;;;;21.07;39.97;100021.88;5031221;28;20159;-74
2021/09/30 08:30:31;;;;;;;4.85;1.05;;;;;;;21.48;38.61;100024.63;5181605;22;20069;-75
2021/09/30 08:32:56;;;;;;;3.22;1.08;;;;;;;20.92;40.22;100010.53;5033520;28;20065;-75
2021/09/30 08:35:22;;;;;;;5.88;0.93;;;;;;;22.89;37.73;100024.56;5026347;28;20037;-73
2021/09/30 08:37:47;;;;;;;3.90;0.90;;;;;;;24.59;34.00;100002.38;5035633;28;20031;-79
2021/09/30 08:40:14;;;;;;;3.65;0.68;;;;;;;24.46;33.75;100001.72;5034432;28;20025;-75
2021/09/30 08:42:41;;;;;;;1.90;0.70;;;;;;;25.16;32.57;99992.47;5030423;28;20028;-75
2021/09/30 08:45:07;;;;;;;5.38;1.02;;;;;;;25.90;31.93;100005.97;5025973;28;20080;-71
2021/09/30 08:47:34;;;;;;;2.67;0.85;;;;;;;24.43;33.25;99995.88;5030598;28;20021;-73
2021/09/30 08:50:00;;;;;;;4.38;1.00;;;;;;;25.27;33.31;100002.47;5030625;28;20025;-73
2021/09/30 08:52:26;;;;;;;2.55;0.73;;;;;;;25.99;31.58;99989.63;5030529;28;20021;-71
2021/09/30 08:54:51;;;;;;;8.55;0.80;;;;;;;26.76;30.12;99993.19;5030769;28;20095;-76
2021/09/30 08:57:16;;;;;;;4.05;0.55;;;;;;;25.14;33.79;99990.75;5029983;28;20117;-77
2021/09/30 08:59:42;;;;;;;4.55;0.75;;;;;;;26.10;32.19;99996.03;5028101;28;20426;-71
2021/09/30 09:02:14;;;;;;;3.97;0.68;;;;;;;26.49;31.09;99995.44;5031020;28;20232;-75
2021/09/30 09:04:57;;;;;;;2.65;0.68;;;;;;;26.97;30.27;99979.25;5031458;28;20029;-73
2021/09/30 09:07:25;;;;;;;2.47;0.65;;;;;;;27.03;30.39;99978.94;5029855;28;20029;-72
2021/09/30 09:09:51;;;;;;;3.30;0.80;;;;;;;27.61;30.10;99986.72;5031648;28;20029;-72
2021/09/30 09:12:17;;;;;;;4.47;0.73;;;;;;;27.10;29.42;99973.91;5030169;28;20025;-71
2021/09/30 09:14:43;;;;;;;2.10;0.65;;;;;;;24.57;32.59;99982.44;5029219;28;20045;-71
2021/09/30 09:17:12;;;;;;;3.55;0.60;;;;;;;26.46;30.33;99991.28;5028861;28;20021;-71
2021/09/30 09:19:37;;;;;;;3.83;0.60;;;;;;;25.51;31.77;99998.09;5031319;28;20116;-71
2021/09/30 09:22:09;;;;;;;2.22;0.60;;;;;;;26.49;30.18;99987.97;5031399;28;20064;-71
2021/09/30 09:24:35;;;;;;;4.18;0.60;;;;;;;26.17;30.68;99982.69;5012044;28;20026;-71
2021/09/30 09:27:00;;;;;;;5.13;0.68;;;;;;;25.65;32.18;99992.03;5021338;28;20438;-71
2021/09/30 09:29:30;;;;;;;3.28;0.77;;;;;;;26.30;30.39;99989.63;5031031;28;20018;-71
2021/09/30 09:31:56;;;;;;;1.88;0.65;;;;;;;24.42;32.59;99988.69;5031154;28;20104;-71
2021/09/30 09:34:35;;;;;;;4.22;0.80;;;;;;;22.44;36.75;99986.94;5031730;28;20056;-71
2021/09/30 09:39:55;;;;;;;3.53;0.80;;;;;;;20.54;39.09;99976.13;5033611;28;20079;-73
2021/09/30 09:42:27;;;;;;;3.15;0.65;;;;;;;21.65;37.56;99985.06;5036241;28;20097;-75
2021/09/30 09:44:58;;;;;;;4.40;0.70;;;;;;;22.70;36.33;99981.81;5035750;28;20055;-70
2021/09/30 09:47:33;;;;;;;2.72;0.35;;;;;;;24.60;33.32;99977.22;5036166;28;20025;-71
2021/09/30 09:50:14;;;;;;;6.53;0.98;;;;;;;25.55;31.51;99973.47;5021435;28;20575;-70
2021/09/30 09:52:47;;;;;;;4.65;0.70;;;;;;;26.38;29.56;99976.03;5031804;28;20041;-70
2021/09/30 09:55:15;;;;;;;5.22;0.65;;;;;;;27.02;28.86;99968.97;5017529;28;20033;-71
2021/09/30 09:57:41;;;;;;;1.60;0.60;;;;;;;25.40;29.88;99967.88;5031020;28;20029;-72
2021/09/30 10:00:11;;;;;;;3.35;0.70;;;;;;;24.83;31.74;99962.09;5032823;28;20782;-71
2021/09/30 10:02:37;;;;;;;5.47;0.63;;;;;;;24.89;30.68;99962.97;5031833;28;20018;-69
2021/09/30 10:05:02;;;;;;;4.28;0.60;;;;;;;23.02;34.31;99972.88;5031446;28;20032;-71
2021/09/30 10:07:28;;;;;;;2.47;0.50;;;;;;;24.60;32.88;99952.31;5030306;28;20087;-70
2021/09/30 10:09:53;;;;;;;2.60;0.57;;;;;;;22.68;34.19;99961.91;5031257;28;20041;-72
2021/09/30 10:12:19;;;;;;;3.20;0.70;;;;;;;25.37;31.14;99963.72;5031474;28;20053;-72
2021/09/30 10:14:44;;;;;;;2.88;0.45;;;;;;;26.20;29.72;99954.44;5031707;28;20112;-71
2021/09/30 10:17:10;;;;;;;2.28;0.60;;;;;;;26.54;29.32;99949.13;5030562;28;20084;-72
2021/09/30 10:19:37;;;;;;;4.13;0.88;;;;;;;26.18;30.74;99951.09;5030770;28;20039;-72
2021/09/30 10:22:03;;;;;;;2.97;0.70;;;;;;;24.81;29.53;99957.94;5030837;28;20087;-72
2021/09/30 10:24:28;;;;;;;5.32;0.50;;;;;;;26.50;28.88;99947.16;5030870;28;20433;-72
2021/09/30 10:26:57;;;;;;;3.42;0.82;;;;;;;27.41;27.80;99940.47;5030662;28;20108;-72
2021/09/30 10:29:45;;;;;;;3.25;0.55;;;;;;;25.26;28.79;99950.97;5031048;28;20044;-72
2021/09/30 10:32:13;;;;;;;3.03;0.70;;;;;;;24.79;29.35;99938.84;5011488;28;20091;-72
2021/09/30 10:34:42;;;;;;;3.63;0.35;;;;;;;24.68;28.90;99939.88;5019936;28;20045;-74
2021/09/30 10:37:25;;;;;;;2.75;0.60;;;;;;;26.48;27.64;99933.53;5032238;28;20040;-73
2021/09/30 10:40:12;;;;;;;6.03;0.73;;;;;;;25.91;27.72;99943.91;5028318;28;20045;-75
2021/09/30 10:42:58;;;;;;;3.53;0.47;;;;;;;23.71;30.36;99937.19;5031249;28;20661;-72
2021/09/30 10:45:27;;;;;;;4.70;0.50;;;;;;;23.25;32.44;99933.97;5029587;28;20120;-73
2021/09/30 10:48:04;;;;;;;2.00;0.40;;;;;;;21.97;31.87;99940.41;5025968;28;20028;-70
2021/09/30 10:50:46;;;;;;;3.97;0.60;;;;;;;23.04;30.76;99932.06;5030307;28;20629;-73
2021/09/30 10:53:12;;;;;;;2.47;0.65;;;;;;;23.95;30.60;99936.88;5031458;28;20475;-71
2021/09/30 10:55:37;;;;;;;5.30;0.40;;;;;;;25.02;26.45;99937.56;5031687;28;20037;-74
2021/09/30 10:58:19;;;;;;;2.25;0.40;;;;;;;25.27;26.41;99936.00;5028689;28;20037;-74
2021/09/30 11:00:46;;;;;;;1.27;0.43;;;;;;;25.64;27.12;99923.88;5021612;28;20025;-74
2021/09/30 11:03:13;;;;;;;1.52;0.38;;;;;;;27.02;25.01;99918.97;5028359;28;20032;-70
2021/09/30 11:05:42;;;;;;;1.10;0.40;;;;;;;27.13;25.84;99928.06;5031166;28;20173;-72
2021/09/30 11:08:21;;;;;;;2.17;0.70;;;;;;;27.64;26.70;99918.59;5027053;28;20048;-69
2021/09/30 11:11:02;;;;;;;1.58;0.40;;;;;;;27.36;25.83;99918.25;5029939;28;20729;-70
2021/09/30 11:13:30;;;;;;;2.17;0.43;;;;;;;28.08;25.75;99903.81;5033781;28;20029;-74
2021/09/30 11:15:58;;;;;;;1.60;0.52;;;;;;;26.67;25.22;99915.22;5037633;28;20474;-74
2021/09/30 11:18:42;;;;;;;1.05;0.40;;;;;;;26.66;23.09;99912.72;5034887;28;20120;-76
2021/09/30 11:21:32;;;;;;;2.47;0.82;;;;;;;26.11;24.04;99914.47;5030051;28;20025;-72
2021/09/30 11:24:00;;;;;;;2.97;0.50;;;;;;;26.06;26.09;99906.97;5022034;28;20049;-72
2021/09/30 11:26:28;;;;;;;0.75;0.20;;;;;;;26.41;25.54;99910.84;5040799;28;20419;-74
2021/09/30 11:28:55;;;;;;;2.83;0.40;;;;;;;26.82;24.79;99900.44;5035184;28;20033;-74
2021/09/30 11:31:25;;;;;;;2.50;0.68;;;;;;;25.28;26.85;99909.94;5032176;28;20037;-72
2021/09/30 11:33:52;;;;;;;2.47;0.63;;;;;;;25.49;27.25;99897.81;5016206;28;20136;-70
2021/09/30 11:36:18;;;;;;;2.20;0.35;;;;;;;25.28;27.67;99905.25;5031637;28;20065;-65
2021/09/30 11:38:44;;;;;;;1.65;0.32;;;;;;;25.74;26.19;99893.38;5031404;28;20777;-64
2021/09/30 11:41:10;;;;;;;1.88;0.47;;;;;;;27.15;25.93;99891.69;5031041;28;20159;-69
2021/09/30 11:43:36;;;;;;;3.45;0.80;;;;;;;28.09;25.25;99892.41;5031219;28;20029;-69
2021/09/30 11:46:32;;;;;;;1.30;0.40;;;;;;;27.50;26.18;99885.06;5031073;28;20474;-71
2021/09/30 11:49:02;;;;;;;2.17;0.40;;;;;;;28.21;24.57;99878.06;5028598;28;20022;-72
2021/09/30 11:51:34;;;;;;;2.15;0.30;;;;;;;28.23;23.23;99880.56;5030871;28;20065;-70
2021/09/30 11:54:00;;;;;;;6.22;0.70;;;;;;;24.53;26.95;99882.53;5031747;28;20048;-67
2021/09/30 11:56:27;;;;;;;2.30;0.57;;;;;;;21.84;30.85;99869.13;5032486;28;20104;-73
2021/09/30 11:59:05;;;;;;;2.60;0.40;;;;;;;21.28;31.42;99871.72;5031988;28;20032;-74
2021/09/30 12:01:50;;;;;;;1.95;0.45;;;;;;;20.42;34.12;99884.56;5025927;28;20036;-68
2021/09/30 12:04:41;;;;;;;4.10;0.30;;;;;;;19.95;36.28;99877.19;5018824;28;20083;-67
2021/09/30 12:07:14;;;;;;;1.65;0.50;;;;;;;20.28;35.00;99876.56;5026204;28;20059;-68
2021/09/30 12:09:40;;;;;;;2.10;0.32;;;;;;;20.98;34.07;99863.72;5032194;28;20509;-67
2021/09/30 12:12:05;;;;;;;0.90;0.30;;;;;;;23.11;32.42;99850.72;5030892;28;20033;-67
2021/09/30 12:14:37;;;;;;;3.40;0.60;;;;;;;25.29;29.80;99850.69;5031906;28;20029;-68
2021/09/30 12:17:06;;;;;;;3.03;0.30;;;;;;;26.95;27.36;99842.63;5029967;28;20049;-68
2021/09/30 12:19:37;;;;;;;2.17;0.60;;;;;;;26.94;25.27;99835.41;5026850;28;20436;-68
2021/09/30 12:22:18;;;;;;;2.55;0.50;;;;;;;28.36;24.37;99832.56;5028788;28;20097;-68
2021/09/30 12:24:49;;;;;;;2.05;0.40;;;;;;;29.39;24.19;99835.63;5025381;28;20040;-69
2021/09/30 12:27:16;;;;;;;2.85;0.68;;;;;;;28.90;25.18;99828.56;5027009;28;20040;-68
2021/09/30 12:29:45;;;;;;;6.32;0.70;;;;;;;27.97;25.77;99819.63;5027699;28;20497;-69
2021/09/30 12:32:17;;;;;;;2.33;0.35;;;;;;;24.96;28.58;99825.09;5024547;28;20017;-69
2021/09/30 12:35:00;;;;;;;2.85;0.75;;;;;;;25.20;29.60;99830.16;5028810;28;20533;-68
2021/09/30 12:37:26;;;;;;;3.20;0.50;;;;;;;26.63;27.84;99819.72;5026736;28;20060;-68
2021/09/30 12:40:00;;;;;;;3.33;0.47;;;;;;;28.66;25.33;99820.22;5027384;28;20060;-68
2021/09/30 12:42:25;;;;;;;2.80;0.47;;;;;;;29.02;25.20;99812.19;5018706;28;20017;-68
2021/09/30 12:44:51;;;;;;;1.77;0.40;;;;;;;29.27;24.60;99816.59;5028462;28;20528;-69
2021/09/30 12:47:38;;;;;;;1.80;0.50;;;;;;;29.87;24.32;99803.91;5028762;28;20526;-69
2021/09/30 12:50:04;;;;;;;2.38;0.43;;;;;;;30.30;23.55;99800.88;5025973;28;20029;-69
2021/09/30 12:52:29;;;;;;;4.13;0.60;;;;;;;30.07;23.31;99785.94;5028127;28;20032;-69
2021/09/30 12:54:55;;;;;;;4.63;0.55;;;;;;;29.73;23.79;99794.69;5024499;28;20039;-69
2021/09/30 12:57:20;;;;;;;4.05;0.63;;;;;;;29.61;23.29;99790.38;5027031;28;20079;-69
2021/09/30 13:00:07;;;;;;;4.75;0.50;;;;;;;29.12;24.46;99788.16;5026421;28;20502;-69
2021/09/30 13:02:33;;;;;;;1.30;0.40;;;;;;;29.10;24.35;99782.88;5027384;28;20021;-69
2021/09/30 13:04:58;;;;;;;2.78;0.60;;;;;;;29.58;23.75;99779.84;5028220;28;20287;-68
2021/09/30 13:07:23;;;;;;;2.97;0.40;;;;;;;29.91;22.88;99768.66;5023553;28;20121;-69
2021/09/30 13:10:01;;;;;;;2.42;0.50;;;;;;;30.33;22.14;99777.91;5025990;28;20280;-68
2021/09/30 13:12:26;;;;;;;4.53;0.60;;;;;;;28.75;24.21;99779.47;5028196;28;20030;-69
2021/09/30 13:14:53;;;;;;;3.53;0.30;;;;;;;27.46;25.19;99778.41;5030688;28;20709;-68
2021/09/30 13:17:24;;;;;;;2.50;0.45;;;;;;;29.13;24.67;99767.50;5018011;28;20271;-68
2021/09/30 13:20:01;;;;;;;1.17;0.40;;;;;;;29.09;24.11;99772.03;5031838;28;20021;-70
2021/09/30 13:22:34;;;;;;;1.77;0.50;;;;;;;28.89;23.63;99768.38;5031514;28;20022;-67
2021/09/30 13:25:04;;;;;;;3.63;0.40;;;;;;;29.57;23.57;99766.22;5031108;28;20383;-69
2021/09/30 13:27:34;;;;;;;2.70;0.50;;;;;;;28.67;23.96;99754.25;5031069;28;20025;-68
2021/09/30 13:30:01;;;;;;;1.38;0.30;;;;;;;28.59;24.18;99755.75;5029685;28;20041;-68
2021/09/30 13:32:27;;;;;;;1.40;0.60;;;;;;;27.54;24.77;99752.75;5029919;28;20533;-68
2021/09/30 13:34:55;;;;;;;4.35;0.50;;;;;;;27.31;24.98;99746.00;5031483;28;20490;-68
2021/09/30 13:37:20;;;;;;;2.38;0.68;;;;;;;27.04;24.49;99746.47;5031141;28;20514;-68
2021/09/30 13:39:46;;;;;;;2.67;0.50;;;;;;;26.39;24.18;99733.50;5027839;28;20079;-68
2021/09/30 13:42:11;;;;;;;2.72;0.40;;;;;;;27.02;23.24;99735.63;5031560;28;20049;-68
2021/09/30 13:44:37;;;;;;;2.15;0.47;;;;;;;27.24;23.07;99740.75;5029942;28;20029;-68
2021/09/30 13:47:03;;;;;;;2.00;0.20;;;;;;;26.88;22.51;99734.63;5031220;28;20041;-68
2021/09/30 13:49:28;;;;;;;2.92;0.30;;;;;;;26.93;22.85;99744.88;5030736;28;20033;-68
2021/09/30 13:51:54;;;;;;;2.60;0.40;;;;;;;26.30;22.86;99728.84;5030275;28;20033;-68
2021/09/30 13:54:19;;;;;;;4.93;0.73;;;;;;;26.38;23.19;99740.19;5031397;28;20520;-68
2021/09/30 13:56:45;;;;;;;1.45;0.30;;;;;;;27.33;22.85;99738.19;5030661;28;20075;-68
2021/09/30 13:59:10;;;;;;;2.10;0.32;;;;;;;25.96;23.53;99735.94;5030872;28;20079;-69
2021/09/30 14:01:35;;;;;;;4.15;0.47;;;;;;;26.61;23.87;99730.34;5029638;28;20026;-68
2021/09/30 14:04:02;;;;;;;2.90;0.50;;;;;;;26.31;24.43;99723.00;5028679;28;20033;-68
2021/09/30 14:06:27;;;;;;;1.08;0.30;;;;;;;26.09;26.39;99711.44;5030337;28;20024;-68
2021/09/30 14:08:55;;;;;;;3.28;0.60;;;;;;;26.19;26.34;99722.50;5030491;28;20022;-68
2021/09/30 14:11:23;;;;;;;2.63;0.40;;;;;;;26.65;26.72;99723.13;5030752;28;20029;-67
2021/09/30 14:13:49;;;;;;;2.67;0.88;;;;;;;26.93;26.04;99725.44;5030189;28;20034;-67
2021/09/30 14:16:15;;;;;;;4.05;2.10;;;;;;;26.22;25.92;99719.16;5030439;28;20070;-68
2021/09/30 14:18:41;;;;;;;2.83;0.60;;;;;;;26.74;25.50;99717.78;5029871;28;20033;-68
2021/09/30 14:21:07;;;;;;;1.60;0.30;;;;;;;25.97;26.19;99707.06;5030701;28;20543;-68
2021/09/30 14:23:32;;;;;;;1.75;0.47;;;;;;;26.29;26.96;99716.91;5030572;28;20448;-68
2021/09/30 14:25:58;;;;;;;2.13;0.50;;;;;;;27.01;26.19;99722.03;5030320;28;20033;-68
2021/09/30 14:28:25;;;;;;;2.38;0.40;;;;;;;26.88;25.59;99716.03;5037913;28;20033;-68
2021/09/30 14:30:52;;;;;;;2.78;0.60;;;;;;;25.27;25.87;99718.00;5047234;28;20021;-68
2021/09/30 14:33:18;;;;;;;2.38;0.32;;;;;;;26.38;26.08;99718.00;5046812;28;20029;-68
2021/09/30 14:35:43;;;;;;;6.05;0.45;;;;;;;24.64;27.02;99718.22;5047827;28;20060;-68